createdAt,value
2022-12-17T00:00:27.715Z,21.03
2022-12-17T00:01:26.503Z,21.03
2022-12-17T00:02:27.236Z,21.03
2022-12-17T00:03:28.037Z,21.15
2022-12-17T00:04:28.702Z,21.11
2022-12-17T00:05:29.300Z,21.12
2022-12-17T00:06:30.044Z,21.15
2022-12-17T00:07:30.646Z,21.12
2022-12-17T00:08:31.305Z,21.12
2022-12-17T00:09:31.908Z,21.14
2022-12-17T00:10:32.503Z,21.15
2022-12-17T00:11:33.104Z,21.17
2022-12-17T00:12:33.697Z,21.21
2022-12-17T00:13:34.672Z,21.18
2022-12-17T00:14:35.422Z,21.33
2022-12-17T00:15:36.024Z,21.24
2022-12-17T00:16:36.679Z,21.27
2022-12-17T00:17:37.370Z,21.33
2022-12-17T00:18:37.965Z,21.37
2022-12-17T00:19:38.572Z,21.30
2022-12-17T00:20:39.164Z,21.33
2022-12-17T00:21:40.562Z,21.22
2022-12-17T00:22:41.157Z,21.25
2022-12-17T00:23:41.757Z,21.24
2022-12-17T00:24:42.349Z,21.20
2022-12-17T00:25:44.569Z,21.17
2022-12-17T00:26:44.540Z,21.15
2022-12-17T00:27:45.140Z,21.11
2022-12-17T00:28:45.733Z,21.03
2022-12-17T00:29:46.336Z,21.06
2022-12-17T00:30:47.778Z,21.05
2022-12-17T00:31:48.444Z,21.02
2022-12-17T00:32:49.094Z,21.00
2022-12-17T00:33:50.558Z,20.95
2022-12-17T00:34:51.300Z,20.95
2022-12-17T00:35:51.904Z,20.92
2022-12-17T00:36:52.549Z,20.88
2022-12-17T00:37:53.152Z,20.87
2022-12-17T00:38:53.747Z,20.78
2022-12-17T00:39:59.103Z,20.81
2022-12-17T00:40:55.941Z,20.84
2022-12-17T00:41:56.611Z,20.74
2022-12-17T00:42:57.194Z,20.72
2022-12-17T00:43:57.798Z,20.74
2022-12-17T00:44:58.393Z,20.65
2022-12-17T00:45:58.997Z,20.70
2022-12-17T00:46:59.717Z,20.65
2022-12-17T00:48:00.338Z,20.62
2022-12-17T00:49:00.930Z,20.59
2022-12-17T00:50:01.534Z,20.62
2022-12-17T00:51:02.155Z,20.62
2022-12-17T00:52:03.555Z,20.56
2022-12-17T00:53:04.149Z,20.43
2022-12-17T00:54:04.751Z,20.50
2022-12-17T00:55:05.344Z,20.47
2022-12-17T00:56:05.948Z,20.48
2022-12-17T00:57:06.542Z,20.43
2022-12-17T00:58:07.144Z,20.48
2022-12-17T00:59:07.740Z,20.43
2022-12-17T01:00:08.347Z,20.37
2022-12-17T01:01:09.936Z,20.31
2022-12-17T01:02:10.653Z,20.34
2022-12-17T01:03:11.412Z,20.32
2022-12-17T01:04:12.064Z,20.26
2022-12-17T01:05:12.656Z,20.37
2022-12-17T01:06:13.258Z,20.34
2022-12-17T01:07:13.851Z,20.31
2022-12-17T01:08:14.453Z,20.19
2022-12-17T01:09:15.047Z,20.21
2022-12-17T01:10:15.651Z,20.19
2022-12-17T01:11:16.241Z,20.16
2022-12-17T01:12:16.844Z,20.16
2022-12-17T01:13:17.437Z,20.21
2022-12-17T01:14:18.039Z,20.21
2022-12-17T01:15:18.633Z,20.21
2022-12-17T01:16:19.289Z,20.21
2022-12-17T01:17:19.872Z,20.07
2022-12-17T01:18:20.474Z,20.16
2022-12-17T01:19:21.065Z,20.16
2022-12-17T01:20:21.664Z,20.07
2022-12-17T01:21:22.256Z,20.06
2022-12-17T01:22:22.860Z,20.09
2022-12-17T01:23:23.454Z,20.03
2022-12-17T01:24:24.055Z,20.10
2022-12-17T01:25:24.651Z,20.06
2022-12-17T01:26:25.253Z,20.09
2022-12-17T01:27:25.967Z,20.06
2022-12-17T01:28:26.569Z,20.04
2022-12-17T01:29:27.162Z,20.04
2022-12-17T01:30:27.766Z,20.03
2022-12-17T01:31:34.365Z,20.03
2022-12-17T01:32:29.953Z,20.04
2022-12-17T01:33:30.547Z,19.92
2022-12-17T01:34:31.150Z,19.99
2022-12-17T01:35:31.743Z,19.92
2022-12-17T01:36:32.395Z,19.95
2022-12-17T01:37:33.038Z,19.94
2022-12-17T01:38:33.640Z,19.94
2022-12-17T01:39:34.233Z,19.91
2022-12-17T01:40:34.836Z,20.04
2022-12-17T01:41:35.428Z,19.95
2022-12-17T01:42:36.035Z,20.02
2022-12-17T01:43:36.960Z,19.99
2022-12-17T01:44:37.765Z,19.92
2022-12-17T01:45:38.377Z,19.88
2022-12-17T01:46:38.977Z,19.85
2022-12-17T01:47:39.570Z,19.85
2022-12-17T01:48:40.239Z,19.95
2022-12-17T01:49:40.829Z,19.94
2022-12-17T01:50:41.431Z,19.89
2022-12-17T01:51:42.027Z,19.88
2022-12-17T01:52:42.631Z,19.89
2022-12-17T01:53:43.328Z,19.81
2022-12-17T01:54:43.930Z,19.84
2022-12-17T01:55:44.573Z,19.85
2022-12-17T01:56:45.175Z,19.91
2022-12-17T01:57:45.768Z,19.85
2022-12-17T01:58:46.371Z,19.82
2022-12-17T01:59:46.975Z,19.82
2022-12-17T02:00:47.628Z,19.81
2022-12-17T02:01:48.401Z,19.82
2022-12-17T02:02:49.236Z,19.85
2022-12-17T02:03:49.875Z,19.74
2022-12-17T02:04:50.465Z,19.77
2022-12-17T02:05:51.068Z,19.77
2022-12-17T02:06:51.664Z,19.82
2022-12-17T02:07:52.380Z,19.73
2022-12-17T02:08:52.971Z,19.81
2022-12-17T02:09:53.575Z,19.73
2022-12-17T02:10:56.380Z,19.70
2022-12-17T02:11:55.758Z,19.74
2022-12-17T02:12:56.924Z,19.76
2022-12-17T02:13:57.525Z,19.71
2022-12-17T02:14:58.116Z,19.77
2022-12-17T02:15:58.807Z,19.64
2022-12-17T02:16:59.390Z,19.73
2022-12-17T02:17:59.990Z,19.76
2022-12-17T02:19:00.582Z,19.73
2022-12-17T02:20:01.180Z,19.76
2022-12-17T02:21:01.782Z,19.66
2022-12-17T02:22:02.375Z,19.74
2022-12-17T02:23:02.969Z,19.67
2022-12-17T02:24:03.571Z,19.69
2022-12-17T02:25:04.178Z,19.67
2022-12-17T02:26:04.767Z,19.67
2022-12-17T02:27:05.364Z,19.66
2022-12-17T02:28:06.013Z,19.63
2022-12-17T02:29:06.610Z,19.63
2022-12-17T02:30:07.206Z,19.62
2022-12-17T02:31:07.798Z,19.67
2022-12-17T02:32:08.447Z,19.64
2022-12-17T02:33:09.063Z,19.62
2022-12-17T02:34:09.664Z,19.58
2022-12-17T02:35:10.260Z,19.59
2022-12-17T02:36:10.862Z,19.58
2022-12-17T02:37:11.458Z,19.56
2022-12-17T02:38:12.107Z,19.62
2022-12-17T02:39:12.702Z,19.64
2022-12-17T02:40:13.303Z,19.56
2022-12-17T02:41:13.897Z,19.59
2022-12-17T02:42:14.644Z,19.59
2022-12-17T02:43:15.238Z,19.59
2022-12-17T02:44:15.840Z,19.59
2022-12-17T02:45:16.435Z,19.55
2022-12-17T02:46:17.067Z,19.51
2022-12-17T02:47:17.680Z,19.54
2022-12-17T02:48:19.080Z,19.56
2022-12-17T02:49:19.672Z,19.56
2022-12-17T02:50:20.272Z,19.55
2022-12-17T02:51:20.864Z,19.49
2022-12-17T02:52:21.466Z,19.45
2022-12-17T02:53:22.110Z,19.47
2022-12-17T02:54:22.710Z,19.54
2022-12-17T02:55:24.154Z,19.49
2022-12-17T02:56:24.757Z,19.48
2022-12-17T02:57:25.351Z,19.49
2022-12-17T02:58:25.952Z,19.51
2022-12-17T02:59:26.546Z,19.44
2022-12-17T03:00:27.197Z,19.49
2022-12-17T03:01:27.970Z,19.49
2022-12-17T03:02:28.740Z,19.51
2022-12-17T03:03:29.513Z,19.51
2022-12-17T03:04:30.118Z,19.51
2022-12-17T03:05:46.266Z,19.49
2022-12-17T03:06:32.297Z,19.48
2022-12-17T03:07:32.891Z,19.45
2022-12-17T03:08:33.491Z,19.45
2022-12-17T03:09:34.085Z,19.48
2022-12-17T03:10:34.686Z,19.44
2022-12-17T03:11:35.281Z,19.48
2022-12-17T03:12:35.946Z,19.49
2022-12-17T03:13:36.802Z,19.40
2022-12-17T03:14:37.698Z,19.44
2022-12-17T03:15:38.289Z,19.48
2022-12-17T03:16:38.917Z,19.45
2022-12-17T03:17:39.505Z,19.44
2022-12-17T03:18:40.107Z,19.48
2022-12-17T03:19:40.704Z,19.44
2022-12-17T03:20:41.303Z,19.47
2022-12-17T03:21:41.895Z,19.48
2022-12-17T03:22:42.494Z,19.41
2022-12-17T03:23:43.087Z,19.47
2022-12-17T03:24:43.688Z,19.44
2022-12-17T03:25:44.281Z,19.40
2022-12-17T03:26:44.886Z,19.47
2022-12-17T03:27:45.476Z,19.44
2022-12-17T03:28:46.076Z,19.37
2022-12-17T03:29:46.671Z,19.36
2022-12-17T03:30:49.279Z,19.40
2022-12-17T03:31:48.961Z,19.44
2022-12-17T03:32:49.558Z,19.45
2022-12-17T03:33:50.151Z,19.34
2022-12-17T03:34:50.755Z,19.39
2022-12-17T03:35:51.345Z,19.34
2022-12-17T03:36:51.948Z,19.34
2022-12-17T03:37:52.543Z,19.41
2022-12-17T03:38:53.148Z,19.37
2022-12-17T03:39:53.750Z,19.39
2022-12-17T03:40:54.345Z,19.44
2022-12-17T03:41:54.934Z,19.39
2022-12-17T03:42:55.536Z,19.39
2022-12-17T03:43:56.130Z,19.36
2022-12-17T03:44:56.729Z,19.36
2022-12-17T03:45:57.400Z,19.34
2022-12-17T03:46:58.027Z,19.29
2022-12-17T03:47:58.619Z,19.30
2022-12-17T03:48:59.249Z,19.44
2022-12-17T03:49:59.893Z,19.26
2022-12-17T03:51:00.493Z,19.36
2022-12-17T03:52:01.085Z,19.33
2022-12-17T03:53:01.688Z,19.30
2022-12-17T03:54:02.282Z,19.31
2022-12-17T03:55:02.886Z,19.26
2022-12-17T03:56:03.480Z,19.34
2022-12-17T03:57:04.883Z,19.19
2022-12-17T03:58:05.475Z,19.30
2022-12-17T03:59:06.076Z,19.33
2022-12-17T04:00:06.669Z,19.27
2022-12-17T04:01:08.161Z,19.27
2022-12-17T04:02:08.926Z,19.27
2022-12-17T04:03:09.804Z,19.22
2022-12-17T04:04:10.396Z,19.27
2022-12-17T04:05:15.213Z,19.27
2022-12-17T04:06:13.434Z,19.24
2022-12-17T04:07:14.101Z,19.31
2022-12-17T04:08:14.825Z,19.26
2022-12-17T04:09:15.423Z,19.24
2022-12-17T04:10:16.016Z,19.26
2022-12-17T04:11:16.615Z,19.30
2022-12-17T04:12:17.210Z,19.27
2022-12-17T04:13:17.810Z,19.33
2022-12-17T04:14:18.402Z,19.33
2022-12-17T04:15:19.046Z,19.22
2022-12-17T04:16:19.660Z,19.24
2022-12-17T04:17:20.325Z,19.22
2022-12-17T04:18:20.920Z,19.26
2022-12-17T04:19:21.522Z,19.22
2022-12-17T04:20:22.116Z,19.29
2022-12-17T04:21:22.719Z,19.24
2022-12-17T04:22:23.307Z,19.39
2022-12-17T04:23:23.922Z,19.31
2022-12-17T04:24:24.504Z,19.18
2022-12-17T04:25:25.106Z,19.31
2022-12-17T04:26:25.698Z,19.26
2022-12-17T04:27:26.300Z,19.24
2022-12-17T04:28:26.963Z,19.18
2022-12-17T04:29:27.563Z,19.19
2022-12-17T04:30:28.155Z,19.22
2022-12-17T04:31:28.848Z,19.26
2022-12-17T04:32:34.868Z,19.16
2022-12-17T04:33:31.038Z,19.24
2022-12-17T04:34:31.632Z,19.29
2022-12-17T04:35:32.230Z,19.16
2022-12-17T04:36:32.822Z,19.22
2022-12-17T04:37:33.432Z,19.24
2022-12-17T04:38:34.014Z,19.19
2022-12-17T04:39:34.615Z,19.19
2022-12-17T04:40:35.207Z,19.26
2022-12-17T04:41:36.658Z,19.22
2022-12-17T04:42:37.252Z,19.24
2022-12-17T04:43:38.231Z,19.24
2022-12-17T04:44:39.164Z,19.18
2022-12-17T04:45:39.766Z,19.24
2022-12-17T04:46:40.507Z,19.19
2022-12-17T04:47:41.107Z,19.21
2022-12-17T04:48:41.698Z,19.21
2022-12-17T04:49:42.298Z,19.19
2022-12-17T04:50:42.890Z,19.22
2022-12-17T04:51:43.493Z,19.18
2022-12-17T04:52:44.088Z,19.21
2022-12-17T04:53:44.686Z,19.19
2022-12-17T04:54:45.328Z,19.19
2022-12-17T04:55:45.937Z,19.26
2022-12-17T04:56:46.523Z,19.18
2022-12-17T04:57:47.127Z,19.19
2022-12-17T04:58:47.720Z,19.24
2022-12-17T04:59:49.123Z,19.24
2022-12-17T05:00:49.715Z,19.21
2022-12-17T05:01:50.424Z,19.22
2022-12-17T05:02:51.321Z,19.19
2022-12-17T05:03:52.089Z,19.15
2022-12-17T05:04:52.747Z,19.19
2022-12-17T05:05:53.473Z,19.16
2022-12-17T05:06:54.030Z,19.24
2022-12-17T05:07:54.683Z,19.15
2022-12-17T05:08:55.351Z,19.15
2022-12-17T05:09:55.949Z,19.16
2022-12-17T05:10:56.592Z,19.16
2022-12-17T05:11:57.202Z,19.16
2022-12-17T05:12:57.790Z,19.14
2022-12-17T05:13:58.391Z,19.14
2022-12-17T05:14:58.985Z,19.15
2022-12-17T05:15:59.632Z,19.22
2022-12-17T05:17:00.240Z,19.15
2022-12-17T05:18:00.844Z,19.14
2022-12-17T05:19:01.443Z,19.24
2022-12-17T05:20:02.036Z,19.14
2022-12-17T05:21:02.859Z,19.15
2022-12-17T05:22:03.459Z,19.15
2022-12-17T05:23:04.050Z,19.08
2022-12-17T05:24:04.649Z,19.11
2022-12-17T05:25:05.242Z,19.18
2022-12-17T05:26:05.845Z,19.15
2022-12-17T05:27:06.439Z,19.14
2022-12-17T05:28:07.102Z,19.18
2022-12-17T05:29:12.488Z,19.11
2022-12-17T05:30:09.291Z,19.18
2022-12-17T05:31:09.909Z,19.08
2022-12-17T05:32:10.516Z,19.16
2022-12-17T05:33:11.110Z,19.12
2022-12-17T05:34:11.709Z,19.16
2022-12-17T05:35:12.298Z,19.15
2022-12-17T05:36:12.898Z,19.16
2022-12-17T05:37:13.492Z,19.15
2022-12-17T05:38:14.094Z,19.18
2022-12-17T05:39:14.691Z,19.08
2022-12-17T05:40:15.288Z,19.12
2022-12-17T05:41:15.882Z,19.11
2022-12-17T05:42:16.533Z,19.12
2022-12-17T05:43:17.125Z,19.18
2022-12-17T05:44:17.725Z,19.08
2022-12-17T05:45:18.387Z,19.12
2022-12-17T05:46:19.034Z,19.18
2022-12-17T05:47:19.675Z,19.15
2022-12-17T05:48:20.275Z,19.11
2022-12-17T05:49:20.868Z,19.07
2022-12-17T05:50:21.471Z,19.09
2022-12-17T05:51:22.065Z,19.02
2022-12-17T05:52:22.667Z,19.12
2022-12-17T05:53:23.305Z,19.09
2022-12-17T05:54:23.904Z,19.07
2022-12-17T05:55:24.495Z,19.09
2022-12-17T05:56:25.097Z,19.11
2022-12-17T05:57:25.689Z,19.09
2022-12-17T05:58:26.291Z,19.07
2022-12-17T05:59:26.937Z,19.09
2022-12-17T06:00:27.535Z,19.07
2022-12-17T06:01:28.199Z,19.04
2022-12-17T06:02:28.834Z,19.08
2022-12-17T06:03:29.561Z,19.04
2022-12-17T06:04:30.070Z,19.09
2022-12-17T06:05:30.662Z,18.99
2022-12-17T06:06:31.265Z,19.02
2022-12-17T06:07:31.860Z,19.00
2022-12-17T06:08:32.457Z,19.02
2022-12-17T06:09:33.050Z,19.00
2022-12-17T06:10:33.654Z,19.00
2022-12-17T06:11:34.246Z,19.11
2022-12-17T06:12:34.901Z,19.04
2022-12-17T06:13:35.856Z,18.99
2022-12-17T06:14:36.636Z,19.00
2022-12-17T06:15:37.278Z,19.00
2022-12-17T06:16:37.925Z,19.00
2022-12-17T06:17:38.561Z,18.98
2022-12-17T06:18:39.153Z,18.98
2022-12-17T06:19:39.757Z,19.00
2022-12-17T06:20:40.419Z,18.99
2022-12-17T06:21:41.171Z,19.00
2022-12-17T06:22:41.765Z,18.99
2022-12-17T06:23:42.365Z,19.00
2022-12-17T06:24:46.077Z,19.04
2022-12-17T06:25:45.351Z,18.96
2022-12-17T06:26:45.942Z,18.95
2022-12-17T06:27:46.545Z,18.99
2022-12-17T06:28:47.140Z,19.04
2022-12-17T06:29:47.742Z,18.96
2022-12-17T06:30:49.190Z,18.98
2022-12-17T06:31:49.805Z,19.00
2022-12-17T06:32:50.384Z,18.95
2022-12-17T06:33:50.983Z,19.00
2022-12-17T06:34:51.574Z,19.00
2022-12-17T06:35:53.025Z,19.00
2022-12-17T06:36:53.666Z,19.00
2022-12-17T06:37:54.269Z,18.96
2022-12-17T06:38:54.863Z,19.02
2022-12-17T06:39:55.525Z,18.98
2022-12-17T06:40:56.968Z,18.98
2022-12-17T06:42:02.283Z,18.99
2022-12-17T06:42:59.207Z,18.88
2022-12-17T06:43:59.806Z,18.88
2022-12-17T06:45:00.398Z,18.88
2022-12-17T06:46:01.913Z,18.92
2022-12-17T06:47:02.596Z,18.99
2022-12-17T06:48:03.169Z,18.86
2022-12-17T06:49:03.760Z,18.89
2022-12-17T06:50:04.364Z,18.86
2022-12-17T06:51:04.957Z,18.93
2022-12-17T06:52:05.560Z,18.90
2022-12-17T06:53:06.155Z,18.96
2022-12-17T06:54:06.751Z,18.96
2022-12-17T06:55:07.342Z,18.96
2022-12-17T06:56:07.942Z,18.89
2022-12-17T06:57:08.537Z,18.95
2022-12-17T06:58:09.199Z,18.99
2022-12-17T06:59:09.791Z,18.93
2022-12-17T07:00:10.389Z,18.93
2022-12-17T07:01:11.196Z,18.95
2022-12-17T07:02:11.931Z,18.90
2022-12-17T07:03:14.812Z,18.98
2022-12-17T07:04:13.267Z,18.89
2022-12-17T07:05:13.858Z,18.92
2022-12-17T07:06:14.459Z,18.89
2022-12-17T07:07:15.054Z,18.93
2022-12-17T07:08:15.651Z,18.93
2022-12-17T07:09:16.242Z,18.96
2022-12-17T07:10:16.845Z,18.95
2022-12-17T07:11:17.439Z,18.95
2022-12-17T07:12:18.046Z,18.90
2022-12-17T07:13:18.636Z,18.93
2022-12-17T07:14:19.238Z,18.90
2022-12-17T07:15:19.834Z,18.90
2022-12-17T07:16:20.465Z,18.95
2022-12-17T07:17:21.067Z,18.90
2022-12-17T07:18:21.667Z,18.89
2022-12-17T07:19:27.053Z,18.89
2022-12-17T07:20:23.852Z,18.86
2022-12-17T07:21:24.444Z,18.90
2022-12-17T07:22:25.045Z,18.90
2022-12-17T07:23:25.639Z,18.93
2022-12-17T07:24:26.241Z,18.89
2022-12-17T07:25:26.830Z,18.89
2022-12-17T07:26:27.433Z,18.90
2022-12-17T07:27:28.028Z,18.86
2022-12-17T07:28:28.690Z,18.93
2022-12-17T07:29:29.281Z,18.89
2022-12-17T07:30:29.883Z,18.89
2022-12-17T07:31:30.495Z,18.89
2022-12-17T07:32:31.982Z,18.90
2022-12-17T07:33:32.797Z,18.78
2022-12-17T07:34:33.436Z,18.93
2022-12-17T07:35:34.028Z,18.88
2022-12-17T07:36:35.479Z,18.89
2022-12-17T07:37:36.228Z,18.86
2022-12-17T07:38:36.826Z,18.83
2022-12-17T07:39:37.419Z,18.81
2022-12-17T07:40:38.020Z,18.80
2022-12-17T07:41:38.612Z,18.88
2022-12-17T07:42:39.211Z,18.83
2022-12-17T07:43:40.048Z,18.81
2022-12-17T07:44:40.880Z,18.86
2022-12-17T07:45:41.498Z,18.81
2022-12-17T07:46:42.889Z,18.88
2022-12-17T07:47:43.533Z,18.88
2022-12-17T07:48:44.140Z,18.84
2022-12-17T07:49:44.731Z,18.83
2022-12-17T07:50:45.332Z,18.86
2022-12-17T07:51:45.926Z,18.88
2022-12-17T07:52:46.527Z,18.90
2022-12-17T07:53:47.118Z,18.83
2022-12-17T07:54:47.771Z,18.84
2022-12-17T07:55:48.361Z,18.84
2022-12-17T07:56:48.962Z,18.83
2022-12-17T07:57:49.556Z,18.84
2022-12-17T07:58:50.152Z,18.84
2022-12-17T07:59:50.748Z,18.78
2022-12-17T08:00:51.412Z,18.86
2022-12-17T08:01:52.238Z,18.80
2022-12-17T08:02:53.111Z,18.88
2022-12-17T08:03:53.609Z,18.86
2022-12-17T08:04:54.212Z,18.81
2022-12-17T08:05:54.805Z,18.80
2022-12-17T08:07:01.682Z,18.75
2022-12-17T08:07:56.992Z,18.77
2022-12-17T08:08:57.597Z,18.78
2022-12-17T08:09:58.195Z,18.78
2022-12-17T08:10:58.790Z,18.83
2022-12-17T08:11:59.384Z,18.78
2022-12-17T08:12:59.983Z,18.81
2022-12-17T08:14:00.576Z,18.78
2022-12-17T08:15:01.178Z,18.74
2022-12-17T08:16:01.767Z,18.78
2022-12-17T08:17:02.455Z,18.80
2022-12-17T08:18:03.042Z,18.77
2022-12-17T08:19:03.778Z,18.77
2022-12-17T08:20:04.364Z,18.77
2022-12-17T08:21:04.966Z,18.78
2022-12-17T08:22:05.561Z,18.80
2022-12-17T08:23:06.199Z,18.80
2022-12-17T08:24:06.822Z,18.77
2022-12-17T08:25:07.423Z,18.73
2022-12-17T08:26:08.014Z,18.71
2022-12-17T08:27:08.618Z,18.77
2022-12-17T08:28:15.806Z,18.78
2022-12-17T08:29:10.800Z,18.73
2022-12-17T08:30:11.402Z,18.77
2022-12-17T08:31:12.087Z,18.78
2022-12-17T08:32:12.691Z,18.75
2022-12-17T08:33:13.288Z,18.74
2022-12-17T08:34:13.881Z,18.75
2022-12-17T08:35:14.483Z,18.78
2022-12-17T08:36:15.076Z,18.71
2022-12-17T08:37:15.678Z,18.78
2022-12-17T08:38:16.372Z,18.74
2022-12-17T08:39:17.823Z,18.73
2022-12-17T08:40:18.486Z,18.73
2022-12-17T08:41:19.088Z,18.73
2022-12-17T08:42:19.676Z,18.73
2022-12-17T08:43:20.280Z,18.71
2022-12-17T08:44:20.871Z,18.75
2022-12-17T08:45:21.471Z,18.71
2022-12-17T08:46:22.177Z,18.75
2022-12-17T08:47:22.937Z,18.74
2022-12-17T08:48:23.542Z,18.75
2022-12-17T08:49:24.194Z,18.68
2022-12-17T08:50:24.785Z,18.75
2022-12-17T08:51:25.389Z,18.77
2022-12-17T08:52:25.979Z,18.68
2022-12-17T08:53:28.544Z,18.74
2022-12-17T08:54:28.164Z,18.73
2022-12-17T08:55:28.784Z,18.73
2022-12-17T08:56:29.365Z,18.73
2022-12-17T08:57:32.247Z,18.74
2022-12-17T08:58:31.489Z,18.74
2022-12-17T08:59:32.092Z,18.73
2022-12-17T09:00:32.688Z,18.75
2022-12-17T09:01:33.444Z,18.77
2022-12-17T09:02:34.270Z,18.71
2022-12-17T09:03:35.349Z,18.66
2022-12-17T09:04:36.161Z,18.65
2022-12-17T09:05:36.786Z,18.73
2022-12-17T09:06:39.221Z,18.62
2022-12-17T09:07:38.972Z,18.74
2022-12-17T09:08:39.564Z,18.62
2022-12-17T09:09:40.164Z,18.71
2022-12-17T09:10:40.757Z,18.73
2022-12-17T09:11:41.362Z,18.73
2022-12-17T09:12:41.950Z,18.73
2022-12-17T09:13:42.550Z,18.73
2022-12-17T09:14:43.141Z,18.66
2022-12-17T09:15:43.743Z,18.70
2022-12-17T09:16:44.376Z,18.75
2022-12-17T09:17:45.034Z,18.73
2022-12-17T09:18:45.628Z,18.71
2022-12-17T09:19:46.228Z,18.77
2022-12-17T09:20:46.825Z,18.77
2022-12-17T09:21:47.424Z,18.70
2022-12-17T09:22:48.021Z,18.62
2022-12-17T09:23:48.618Z,18.65
2022-12-17T09:24:49.209Z,18.75
2022-12-17T09:25:53.668Z,18.75
2022-12-17T09:26:51.398Z,18.74
2022-12-17T09:27:52.008Z,18.70
2022-12-17T09:28:52.591Z,18.71
2022-12-17T09:29:53.190Z,18.62
2022-12-17T09:30:53.876Z,18.66
2022-12-17T09:31:54.501Z,18.68
2022-12-17T09:32:55.095Z,18.65
2022-12-17T09:33:55.696Z,18.63
2022-12-17T09:34:56.292Z,18.70
2022-12-17T09:35:56.896Z,18.68
2022-12-17T09:36:57.487Z,18.62
2022-12-17T09:37:58.087Z,18.66
2022-12-17T09:38:58.677Z,18.63
2022-12-17T09:39:59.279Z,18.77
2022-12-17T09:40:59.870Z,18.66
2022-12-17T09:42:00.475Z,18.68
2022-12-17T09:43:01.065Z,18.60
2022-12-17T09:44:01.814Z,18.62
2022-12-17T09:45:02.449Z,18.62
2022-12-17T09:46:03.109Z,18.65
2022-12-17T09:47:03.714Z,18.63
2022-12-17T09:48:04.316Z,18.74
2022-12-17T09:49:05.124Z,18.63
2022-12-17T09:50:05.903Z,18.77
2022-12-17T09:51:06.491Z,18.65
2022-12-17T09:52:07.090Z,18.66
2022-12-17T09:53:07.688Z,18.66
2022-12-17T09:54:08.281Z,18.62
2022-12-17T09:55:08.871Z,18.63
2022-12-17T09:56:09.471Z,18.71
2022-12-17T09:57:10.063Z,18.63
2022-12-17T09:58:10.676Z,18.71
2022-12-17T09:59:11.325Z,18.65
2022-12-17T10:00:11.975Z,18.65
2022-12-17T10:01:12.645Z,18.70
2022-12-17T10:02:13.453Z,18.63
2022-12-17T10:03:14.182Z,18.70
2022-12-17T10:04:14.797Z,18.74
2022-12-17T10:05:15.389Z,18.65
2022-12-17T10:06:22.258Z,18.59
2022-12-17T10:07:17.576Z,18.62
2022-12-17T10:08:18.177Z,18.66
2022-12-17T10:09:18.918Z,18.68
2022-12-17T10:10:19.520Z,18.65
2022-12-17T10:11:20.116Z,18.66
2022-12-17T10:12:20.715Z,18.62
2022-12-17T10:13:21.308Z,18.71
2022-12-17T10:14:21.910Z,18.62
2022-12-17T10:15:23.352Z,18.66
2022-12-17T10:16:24.018Z,18.63
2022-12-17T10:17:24.602Z,18.66
2022-12-17T10:18:25.211Z,18.66
2022-12-17T10:19:25.795Z,18.73
2022-12-17T10:20:26.395Z,18.66
2022-12-17T10:21:26.987Z,18.65
2022-12-17T10:22:27.588Z,18.66
2022-12-17T10:23:28.184Z,18.60
2022-12-17T10:24:28.788Z,18.65
2022-12-17T10:25:29.449Z,18.62
2022-12-17T10:26:30.047Z,18.62
2022-12-17T10:27:30.645Z,18.66
2022-12-17T10:28:31.245Z,18.62
2022-12-17T10:29:31.833Z,18.66
2022-12-17T10:30:32.435Z,18.62
2022-12-17T10:31:33.174Z,18.65
2022-12-17T10:32:33.878Z,18.60
2022-12-17T10:33:34.857Z,18.62
2022-12-17T10:34:35.646Z,18.62
2022-12-17T10:35:36.237Z,18.70
2022-12-17T10:36:36.839Z,18.62
2022-12-17T10:37:37.443Z,18.63
2022-12-17T10:38:38.037Z,18.60
2022-12-17T10:39:38.636Z,18.66
2022-12-17T10:40:39.230Z,18.62
2022-12-17T10:41:39.832Z,18.66
2022-12-17T10:42:40.422Z,18.68
2022-12-17T10:43:41.025Z,18.62
2022-12-17T10:44:41.615Z,18.62
2022-12-17T10:45:42.218Z,18.74
2022-12-17T10:46:42.908Z,18.70
2022-12-17T10:47:43.549Z,18.60
2022-12-17T10:48:44.149Z,18.73
2022-12-17T10:49:44.738Z,18.60
2022-12-17T10:50:45.331Z,18.59
2022-12-17T10:51:46.082Z,18.63
2022-12-17T10:52:46.724Z,18.71
2022-12-17T10:53:47.324Z,18.73
2022-12-17T10:54:49.580Z,18.63
2022-12-17T10:55:49.525Z,18.65
2022-12-17T10:58:05.525Z,18.65
2022-12-17T10:59:06.126Z,18.75
2022-12-17T11:00:07.572Z,18.77
2022-12-17T11:01:08.256Z,18.71
2022-12-17T11:02:08.985Z,18.74
2022-12-17T11:03:09.676Z,18.74
2022-12-17T11:04:10.320Z,18.75
2022-12-17T11:05:10.915Z,18.77
2022-12-17T11:06:11.512Z,18.71
2022-12-17T11:07:12.110Z,18.71
2022-12-17T11:08:12.701Z,18.74
2022-12-17T11:09:13.306Z,18.73
2022-12-17T11:10:13.997Z,18.73
2022-12-17T11:11:14.597Z,18.73
2022-12-17T11:12:15.189Z,18.73
2022-12-17T11:13:15.789Z,18.71
2022-12-17T11:14:16.383Z,18.73
2022-12-17T11:15:17.049Z,18.75
2022-12-17T11:16:18.579Z,18.70
2022-12-17T11:17:19.246Z,18.73
2022-12-17T11:18:19.842Z,18.74
2022-12-17T11:19:20.443Z,18.68
2022-12-17T11:20:21.036Z,18.81
2022-12-17T11:21:21.687Z,18.75
2022-12-17T11:22:22.307Z,18.74
2022-12-17T11:23:22.881Z,18.78
2022-12-17T11:24:23.475Z,18.73
2022-12-17T11:25:24.078Z,18.73
2022-12-17T11:26:24.673Z,18.80
2022-12-17T11:27:25.276Z,18.71
2022-12-17T11:28:25.870Z,18.80
2022-12-17T11:29:26.473Z,18.81
2022-12-17T11:30:30.722Z,18.77
2022-12-17T11:31:28.683Z,18.78
2022-12-17T11:32:29.323Z,18.74
2022-12-17T11:33:29.924Z,18.71
2022-12-17T11:34:30.566Z,18.80
2022-12-17T11:35:31.167Z,18.78
2022-12-17T11:36:38.504Z,18.78
2022-12-17T11:37:33.358Z,18.80
2022-12-17T11:38:34.102Z,18.80
2022-12-17T11:39:34.607Z,18.80
2022-12-17T11:40:35.297Z,18.77
2022-12-17T11:41:35.863Z,18.75
2022-12-17T11:42:36.455Z,18.75
2022-12-17T11:43:37.059Z,18.83
2022-12-17T11:44:37.652Z,18.77
2022-12-17T11:45:38.255Z,18.84
2022-12-17T11:46:38.894Z,18.78
2022-12-17T11:47:39.501Z,18.77
2022-12-17T11:48:40.363Z,18.75
2022-12-17T11:49:40.760Z,18.80
2022-12-17T11:50:41.349Z,18.78
2022-12-17T11:51:41.950Z,18.77
2022-12-17T11:52:42.543Z,18.84
2022-12-17T11:53:43.148Z,18.80
2022-12-17T11:54:43.742Z,18.74
2022-12-17T11:55:44.395Z,18.88
2022-12-17T11:56:44.990Z,18.83
2022-12-17T11:57:45.593Z,18.77
2022-12-17T11:58:46.188Z,18.78
2022-12-17T11:59:51.129Z,18.78
2022-12-17T12:00:48.428Z,18.80
2022-12-17T12:01:49.058Z,18.78
2022-12-17T12:02:50.630Z,18.77
2022-12-17T12:03:51.289Z,18.78
2022-12-17T12:04:51.903Z,18.78
2022-12-17T12:05:56.713Z,18.78
2022-12-17T12:06:54.089Z,18.77
2022-12-17T12:07:54.690Z,18.77
2022-12-17T12:08:56.085Z,18.74
2022-12-17T12:09:56.683Z,18.80
2022-12-17T12:10:57.274Z,18.81
2022-12-17T12:11:57.878Z,18.77
2022-12-17T12:12:58.471Z,18.86
2022-12-17T12:13:59.875Z,18.80
2022-12-17T12:15:00.466Z,18.88
2022-12-17T12:16:01.117Z,18.81
2022-12-17T12:17:01.772Z,18.84
2022-12-17T12:18:02.374Z,18.80
2022-12-17T12:19:02.967Z,18.93
2022-12-17T12:20:03.569Z,18.84
2022-12-17T12:21:04.165Z,18.83
2022-12-17T12:22:04.768Z,18.90
2022-12-17T12:23:05.362Z,18.90
2022-12-17T12:24:05.964Z,18.81
2022-12-17T12:25:06.563Z,18.88
2022-12-17T12:26:07.159Z,18.89
2022-12-17T12:27:07.751Z,18.92
2022-12-17T12:28:08.354Z,18.90
2022-12-17T12:29:08.947Z,18.89
2022-12-17T12:30:09.549Z,18.90
2022-12-17T12:31:11.079Z,18.93
2022-12-17T12:32:11.676Z,18.88
2022-12-17T12:33:12.320Z,18.83
2022-12-17T12:34:12.921Z,18.90
2022-12-17T12:35:13.565Z,18.89
2022-12-17T12:36:14.166Z,18.86
2022-12-17T12:37:14.808Z,18.88
2022-12-17T12:38:15.409Z,18.86
2022-12-17T12:39:16.001Z,18.84
2022-12-17T12:40:16.667Z,18.84
2022-12-17T12:41:17.266Z,18.84
2022-12-17T12:42:17.930Z,18.81
2022-12-17T12:43:18.523Z,18.84
2022-12-17T12:44:19.126Z,18.84
2022-12-17T12:45:19.727Z,18.88
2022-12-17T12:46:20.394Z,18.86
2022-12-17T12:47:21.007Z,18.84
2022-12-17T12:48:21.607Z,18.86
2022-12-17T12:49:22.200Z,18.86
2022-12-17T12:50:22.800Z,18.86
2022-12-17T12:51:23.394Z,18.84
2022-12-17T12:52:24.146Z,18.83
2022-12-17T12:53:24.806Z,18.90
2022-12-17T12:54:25.409Z,18.88
2022-12-17T12:55:26.002Z,18.86
2022-12-17T12:56:26.602Z,18.89
2022-12-17T12:57:32.313Z,18.86
2022-12-17T12:58:28.790Z,18.83
2022-12-17T12:59:29.383Z,18.84
2022-12-17T13:00:29.984Z,18.84
2022-12-17T13:01:30.730Z,18.86
2022-12-17T13:02:31.562Z,18.80